»·PEaware :: UAL576 KBOI-KPDX

UAL576 :: KBOI-KPDX

FLIGHT INFORMATION

Flight Status: Arrived
Operator:
United Airlines
More flights by this operator :: More flights under this callsign
Pilot: Anonymous 8274 (8274)
Aircraft: BOEING 737-200
(B732)
More flights by this aircraft type
Origin: KBOI Boise Air Terminal/Gowen
United States
Destination: KPDX Portland Intl
United States
More flights between these airports :: More routes between these airports
Route: +BOI3 BOI BKE J54 KOTAA J16 BTG
File this flight plan on PilotEdge
Remarks:
Altitude:
(Current/Filed)
26,000ft
Speed:
(Current/Filed)
440kts
Departed: 20-Dec-17 07:24 PM
Arrived: 20-Dec-17 08:23 PM
Distance/Time
Traveled:
298nm/0:59
Distance/Time
To Go:
Arrived

Flight Plot

Page will automatically refresh every two minutes.

Flight plan parsing failed; only flown route is shown


Map Options




Map Legend


Flown Route
Filed Route
Departure Airport
Arrival Airport
Navaid (VOR, NDB)
Fix

Horizontal Profiles

Position Reports

Time Latitude Longitude Heading Altitude Ground
Speed
20-Dec-17 18:45 43.567799 -116.219152 219 2847ft 0kts
20-Dec-17 18:46 43.567799 -116.219152 219 2847ft 0kts
20-Dec-17 18:47 43.567799 -116.219152 219 2847ft 0kts
20-Dec-17 18:48 43.567799 -116.219152 219 2847ft 0kts
20-Dec-17 18:49 43.567799 -116.219152 219 2847ft 0kts
20-Dec-17 18:50 43.567799 -116.219152 219 2847ft 0kts
20-Dec-17 18:51 43.567799 -116.219152 219 2847ft 0kts
20-Dec-17 18:52 43.567799 -116.219152 219 2847ft 0kts
20-Dec-17 18:53 43.567799 -116.219152 219 2847ft 0kts
20-Dec-17 18:54 43.567799 -116.219152 219 2847ft 0kts
20-Dec-17 18:55 43.567799 -116.219152 219 2847ft 0kts
20-Dec-17 18:56 43.567799 -116.219152 219 2847ft 0kts
20-Dec-17 18:57 43.567799 -116.219152 219 2847ft 0kts
20-Dec-17 18:58 43.567799 -116.219152 219 2847ft 0kts
20-Dec-17 18:59 43.567799 -116.219152 219 2847ft 0kts
20-Dec-17 19:00 43.567799 -116.219152 219 2847ft 0kts
20-Dec-17 19:01 43.567799 -116.219152 219 2847ft 0kts
20-Dec-17 19:02 43.567799 -116.219152 219 2847ft 0kts
20-Dec-17 19:03 43.567799 -116.219152 219 2847ft 0kts
20-Dec-17 19:04 43.567799 -116.219152 219 2847ft 0kts
20-Dec-17 19:05 43.567867 -116.219074 208 2847ft 2kts
20-Dec-17 19:06 43.568216 -116.219387 96 2847ft 1kts
20-Dec-17 19:07 43.568217 -116.219401 96 2847ft 0kts
20-Dec-17 19:08 43.568217 -116.219401 96 2847ft 0kts
20-Dec-17 19:09 43.568217 -116.219401 96 2847ft 0kts
20-Dec-17 19:10 43.568217 -116.219401 96 2847ft 0kts
20-Dec-17 19:11 43.568217 -116.219401 96 2847ft 0kts
20-Dec-17 19:12 43.568217 -116.219401 96 2847ft 0kts
20-Dec-17 19:13 43.568217 -116.219401 96 2847ft 0kts
20-Dec-17 19:14 43.568217 -116.219401 96 2847ft 0kts
20-Dec-17 19:15 43.568217 -116.219401 96 2847ft 0kts
20-Dec-17 19:16 43.568217 -116.219401 96 2847ft 0kts
20-Dec-17 19:17 43.568217 -116.219401 96 2847ft 0kts
20-Dec-17 19:18 43.568217 -116.219401 96 2847ft 0kts
20-Dec-17 19:19 43.568217 -116.219401 96 2847ft 0kts
20-Dec-17 19:20 43.568048 -116.217647 109 2847ft 13kts
20-Dec-17 19:21 43.567218 -116.217095 173 2847ft 0kts
20-Dec-17 19:22 43.567218 -116.217095 173 2847ft 0kts
20-Dec-17 19:23 43.567218 -116.217095 173 2847ft 0kts
20-Dec-17 19:24 43.567218 -116.217095 173 2847ft 0kts
20-Dec-17 19:25 43.565949 -116.216979 174 2847ft 17kts
20-Dec-17 19:26 43.562484 -116.210604 114 2847ft 24kts
20-Dec-17 19:27 43.560195 -116.203742 115 2847ft 23kts
20-Dec-17 19:28 43.559395 -116.202083 172 2847ft 0kts
20-Dec-17 19:29 43.559117 -116.202125 189 2847ft 7kts
20-Dec-17 19:30 43.563378 -116.216773 295 2856ft 135kts
20-Dec-17 19:31 43.579086 -116.271191 294 4864ft 178kts
20-Dec-17 19:32 43.605893 -116.345071 293 6919ft 262kts
20-Dec-17 19:33 43.630858 -116.437632 291 9846ft 278kts
20-Dec-17 19:34 43.672970 -116.529331 314 12078ft 302kts
20-Dec-17 19:35 43.731302 -116.611854 314 14609ft 306kts
20-Dec-17 19:36 43.793069 -116.696267 314 15995ft 336kts
20-Dec-17 19:37 43.863138 -116.784654 317 16013ft 357kts
20-Dec-17 19:38 43.942532 -116.870881 321 16010ft 369kts
20-Dec-17 19:39 44.025357 -116.957915 321 16098ft 384kts
20-Dec-17 19:40 44.109955 -117.045996 321 17859ft 386kts
20-Dec-17 19:41 44.196417 -117.133335 324 19872ft 375kts
20-Dec-17 19:42 44.273944 -117.225056 323 21230ft 383kts
20-Dec-17 19:43 44.347314 -117.322588 323 22379ft 387kts
20-Dec-17 19:44 44.430193 -117.413919 333 23937ft 369kts
20-Dec-17 19:45 44.514977 -117.490932 333 25469ft 359kts
20-Dec-17 19:46 44.599329 -117.567980 333 26041ft 367kts
20-Dec-17 19:47 44.685274 -117.645000 334 26006ft 373kts
20-Dec-17 19:48 44.763121 -117.732232 318 26011ft 385kts
20-Dec-17 19:49 44.820804 -117.857891 298 26022ft 407kts
20-Dec-17 19:50 44.859422 -118.005343 303 26002ft 399kts
20-Dec-17 19:51 44.918565 -118.129607 317 26001ft 381kts
20-Dec-17 19:52 44.989792 -118.235312 323 26032ft 373kts
20-Dec-17 19:53 45.063478 -118.336256 324 26054ft 374kts
20-Dec-17 19:54 45.123076 -118.457921 311 26074ft 391kts
20-Dec-17 19:55 45.182029 -118.586582 312 26076ft 396kts
20-Dec-17 19:56 45.240122 -118.713205 310 26118ft 400kts
20-Dec-17 19:57 45.296833 -118.850123 307 26121ft 406kts
20-Dec-17 19:58 45.351657 -118.990407 308 26120ft 408kts
20-Dec-17 19:59 45.394783 -119.100473 308 26120ft 409kts
20-Dec-17 20:00 45.449981 -119.241029 308 26136ft 410kts
20-Dec-17 20:01 45.505296 -119.381591 308 26146ft 411kts
20-Dec-17 20:02 45.560753 -119.522001 308 26144ft 411kts
20-Dec-17 20:03 45.612721 -119.653375 308 26143ft 411kts
20-Dec-17 20:04 45.668356 -119.794145 308 26140ft 411kts
20-Dec-17 20:05 45.724338 -119.935886 308 25727ft 403kts
20-Dec-17 20:06 45.726900 -120.093229 255 24149ft 441kts
20-Dec-17 20:07 45.696609 -120.251272 270 24160ft 402kts
20-Dec-17 20:08 45.681257 -120.408009 275 24172ft 403kts
20-Dec-17 20:09 45.673218 -120.567741 278 24171ft 408kts
20-Dec-17 20:10 45.677485 -120.724568 286 24168ft 401kts
20-Dec-17 20:11 45.687729 -120.870837 286 24168ft 405kts
20-Dec-17 20:12 45.699231 -121.030298 286 23603ft 393kts
20-Dec-17 20:13 45.710195 -121.184425 284 21300ft 388kts
20-Dec-17 20:14 45.716997 -121.335575 283 19192ft 377kts
20-Dec-17 20:15 45.719795 -121.482560 279 17199ft 371kts
20-Dec-17 20:16 45.719729 -121.623769 279 15358ft 358kts
20-Dec-17 20:17 45.720787 -121.748058 278 14162ft 335kts
20-Dec-17 20:18 45.720460 -121.862556 265 13947ft 321kts
20-Dec-17 20:19 45.676691 -121.969299 243 13045ft 316kts
20-Dec-17 20:20 45.629997 -122.072178 243 11826ft 304kts
20-Dec-17 20:21 45.587132 -122.175903 244 9415ft 297kts
20-Dec-17 20:22 45.547295 -122.273517 243 7473ft 276kts
20-Dec-17 20:23 45.498676 -122.347822 210 5494ft 258kts
20-Dec-17 20:24 45.487821 -122.412564 334 4905ft 186kts
20-Dec-17 20:25 45.531078 -122.437138 315 3763ft 150kts
20-Dec-17 20:26 45.553280 -122.483711 291 1908ft 152kts
20-Dec-17 20:27 45.570268 -122.532916 300 642ft 140kts
20-Dec-17 20:28 45.587852 -122.577836 299 38ft 99kts
20-Dec-17 20:29 45.592120 -122.591353 268 38ft 0kts

Navigation Log

Ident Type
Flight plan parsing failed, navigation log unavailable